Terminal Aerodrome Forecast
Issued by NWS Charleston, WV

Current Version | Previous Version | Graphics & Text | Print | Product List | Glossary On
Versions: 1 2 3 4 5 6 7 8 9 10 11 12 13 14 15 16 17 18 19 20 21
000
FTUS41 KRLX 230500
TAFBKW
TAF
KBKW 230534Z 2306/2406 19004KT P6SM FEW150
     FM231800 15012G23KT P6SM BKN020
     FM232100 14013G28KT 5SM -RA BR OVC020
     FM240000 13015G32KT 2SM -RA BR OVC010
     FM240300 14016G30KT 3SM -RA BR BKN010
     FM240500 16014G25KT 6SM BR BKN010=

USA.gov is the U.S. government's official web portal to all federal, state and local government web resources and services.